Time;durP1;ratioP1;P1;durP2;ratioP2;P2;SDS_P1;SDS_P2;PMS_P1;PMS_P2;Temp;Humidity;BMP_temperature;BMP_pressure;BME280_temperature;BME280_humidity;BME280_pressure;Samples;Min_cycle;Max_cycle;Signal;HPM_P1;HPM_P2
2021/08/30 00:00:39;;;;;;;6.75;4.47;;;17.00;99.90;;;;;;5051890;28;20082;-79
2021/08/30 00:03:04;;;;;;;7.70;4.80;;;17.00;99.90;;;;;;5051439;28;20033;-77
2021/08/30 00:05:30;;;;;;;5.30;3.85;;;17.00;99.90;;;;;;5050112;28;20060;-76
2021/08/30 00:07:56;;;;;;;13.20;4.13;;;17.00;99.90;;;;;;5052179;28;20477;-76
2021/08/30 00:10:21;;;;;;;8.77;4.57;;;17.00;99.90;;;;;;5052353;28;20025;-77
2021/08/30 00:12:47;;;;;;;8.52;4.35;;;17.00;99.90;;;;;;5052751;28;20462;-77
2021/08/30 00:15:14;;;;;;;7.97;4.50;;;17.00;99.90;;;;;;5052418;28;20051;-77
2021/08/30 00:17:40;;;;;;;8.10;4.07;;;16.90;99.90;;;;;;5050952;28;20128;-76
2021/08/30 00:20:09;;;;;;;9.43;4.45;;;16.90;99.90;;;;;;5051367;28;20132;-76
2021/08/30 00:22:34;;;;;;;5.90;4.03;;;17.00;99.90;;;;;;5052176;28;20041;-75
2021/08/30 00:25:01;;;;;;;5.82;4.22;;;16.90;99.90;;;;;;5051895;28;20037;-75
2021/08/30 00:27:27;;;;;;;13.32;4.65;;;16.90;99.90;;;;;;5050039;28;20033;-78
2021/08/30 00:29:53;;;;;;;10.60;4.60;;;17.00;99.90;;;;;;5032944;28;20029;-79
2021/08/30 00:32:19;;;;;;;7.15;5.18;;;16.90;99.90;;;;;;5032978;28;20066;-78
2021/08/30 00:34:44;;;;;;;9.65;4.97;;;16.90;99.90;;;;;;5051200;28;20089;-77
2021/08/30 00:37:10;;;;;;;9.15;4.60;;;16.90;99.90;;;;;;5051451;28;20033;-78
2021/08/30 00:39:36;;;;;;;8.23;4.18;;;16.90;99.90;;;;;;5051980;28;20028;-77
2021/08/30 00:42:01;;;;;;;8.20;4.50;;;16.90;99.90;;;;;;5050743;28;20045;-76
2021/08/30 00:44:28;;;;;;;9.18;4.78;;;16.90;99.90;;;;;;5051397;28;20021;-75
2021/08/30 00:46:53;;;;;;;7.45;4.82;;;16.90;99.90;;;;;;5050544;28;20047;-75
2021/08/30 00:49:20;;;;;;;7.93;5.05;;;17.00;99.90;;;;;;5051389;28;20470;-76
2021/08/30 00:51:46;;;;;;;13.60;4.28;;;17.00;99.90;;;;;;5051874;28;20473;-76
2021/08/30 00:54:11;;;;;;;8.00;4.57;;;17.00;99.90;;;;;;5050411;28;20060;-79
2021/08/30 00:56:38;;;;;;;7.93;4.72;;;17.00;99.90;;;;;;5051655;28;20116;-75
2021/08/30 00:59:04;;;;;;;6.90;4.43;;;17.00;99.90;;;;;;5051806;28;20526;-77
2021/08/30 01:01:30;;;;;;;6.80;4.80;;;17.00;99.90;;;;;;5051611;28;20279;-77
2021/08/30 01:03:55;;;;;;;7.72;4.47;;;17.00;99.90;;;;;;5050275;28;20464;-77
2021/08/30 01:06:37;;;;;;;9.20;5.10;;;17.00;99.90;;;;;;5051940;28;20036;-76
2021/08/30 01:09:24;;;;;;;9.20;5.80;;;17.00;99.90;;;;;;5047491;28;20041;-74
2021/08/30 01:12:06;;;;;;;10.67;5.03;;;16.90;99.90;;;;;;5030549;28;20017;-77
2021/08/30 01:14:36;;;;;;;9.50;5.32;;;16.90;99.90;;;;;;5032004;28;20318;-77
2021/08/30 01:17:04;;;;;;;6.38;4.70;;;16.90;99.90;;;;;;5049377;28;20516;-76
2021/08/30 01:19:38;;;;;;;11.77;5.07;;;16.90;99.90;;;;;;5051972;28;20028;-76
2021/08/30 01:22:05;;;;;;;9.20;5.50;;;16.90;99.90;;;;;;5051345;28;20037;-77
2021/08/30 01:24:32;;;;;;;9.07;5.30;;;16.90;99.90;;;;;;5051813;28;20025;-76
2021/08/30 01:26:59;;;;;;;7.57;4.87;;;16.90;99.90;;;;;;5050742;28;20124;-76
2021/08/30 01:29:40;;;;;;;13.40;6.20;;;16.90;99.90;;;;;;5051226;28;20036;-75
2021/08/30 01:32:28;;;;;;;10.35;5.10;;;16.90;99.90;;;;;;5042209;28;20104;-76
2021/08/30 01:34:55;;;;;;;10.00;5.32;;;16.90;99.90;;;;;;5051364;28;20037;-77
2021/08/30 01:37:22;;;;;;;10.80;4.82;;;16.90;99.90;;;;;;5051179;28;20110;-75
2021/08/30 01:39:49;;;;;;;10.30;5.70;;;16.90;99.90;;;;;;5052649;28;20061;-75
2021/08/30 01:42:18;;;;;;;11.68;6.03;;;16.90;99.90;;;;;;5055520;28;20028;-78
2021/08/30 01:44:45;;;;;;;8.70;6.28;;;16.80;99.90;;;;;;5055700;28;20489;-77
2021/08/30 01:47:12;;;;;;;9.48;5.32;;;16.80;99.90;;;;;;5069508;28;20481;-76
2021/08/30 01:49:37;;;;;;;8.20;5.22;;;16.80;99.90;;;;;;5055198;28;20028;-76
2021/08/30 01:52:03;;;;;;;16.27;6.10;;;16.90;99.90;;;;;;5055059;28;20025;-75
2021/08/30 01:54:30;;;;;;;9.75;5.60;;;16.90;99.90;;;;;;5055161;28;20048;-73
2021/08/30 01:56:57;;;;;;;14.27;6.80;;;16.80;99.90;;;;;;5053000;28;20047;-76
2021/08/30 02:02:11;;;;;;;12.10;5.85;;;16.80;99.90;;;;;;5055174;28;20044;-75
2021/08/30 02:04:37;;;;;;;9.18;6.00;;;16.80;99.90;;;;;;5054965;28;20037;-75
2021/08/30 02:07:04;;;;;;;8.27;5.78;;;16.80;99.90;;;;;;5054470;28;20059;-74
2021/08/30 02:09:30;;;;;;;15.60;6.85;;;16.80;99.90;;;;;;5054980;28;20625;-75
2021/08/30 02:11:56;;;;;;;12.85;5.93;;;16.80;99.90;;;;;;5055042;28;20017;-74
2021/08/30 02:14:22;;;;;;;12.25;6.47;;;16.80;99.90;;;;;;5054631;28;20029;-74
2021/08/30 02:16:52;;;;;;;10.55;6.03;;;16.70;99.90;;;;;;5053850;28;20070;-74
2021/08/30 02:19:44;;;;;;;12.00;6.15;;;16.70;99.90;;;;;;5054041;28;20029;-74
2021/08/30 02:22:20;;;;;;;12.82;5.68;;;16.70;99.90;;;;;;5049705;28;20480;-74
2021/08/30 02:24:51;;;;;;;14.50;6.28;;;16.70;99.90;;;;;;5054750;28;20104;-75
2021/08/30 02:27:20;;;;;;;8.23;5.65;;;16.70;99.90;;;;;;5054067;28;20033;-76
2021/08/30 02:29:48;;;;;;;13.52;6.75;;;16.70;99.90;;;;;;5054187;28;20043;-76
2021/08/30 02:32:16;;;;;;;12.65;6.88;;;16.70;99.90;;;;;;5054284;28;20035;-74
2021/08/30 02:34:45;;;;;;;13.40;6.65;;;16.70;99.90;;;;;;5053447;28;20473;-74
2021/08/30 02:37:12;;;;;;;9.25;6.18;;;16.70;99.90;;;;;;5052313;28;20037;-73
2021/08/30 02:39:39;;;;;;;10.45;6.05;;;16.70;99.90;;;;;;5052124;28;20053;-74
2021/08/30 02:42:07;;;;;;;11.43;5.97;;;16.70;99.90;;;;;;5052998;28;20493;-73
2021/08/30 02:44:33;;;;;;;10.57;6.22;;;16.70;99.90;;;;;;5053749;28;20539;-73
2021/08/30 02:47:00;;;;;;;9.07;5.93;;;16.70;99.90;;;;;;5053858;28;20478;-73
2021/08/30 02:49:26;;;;;;;14.38;6.80;;;16.70;99.90;;;;;;5052660;28;20440;-73
2021/08/30 02:51:54;;;;;;;10.85;6.50;;;16.70;99.90;;;;;;5052134;28;20021;-73
2021/08/30 02:54:21;;;;;;;;;;;16.70;99.90;;;;;;5054848;28;20017;-74
2021/08/30 02:56:47;;;;;;;;;;;16.70;99.90;;;;;;5053985;28;19912;-73
2021/08/30 02:59:13;;;;;;;10.23;5.97;;;16.60;99.90;;;;;;5058817;28;19966;-73
2021/08/30 03:01:40;;;;;;;9.88;6.53;;;16.60;99.90;;;;;;5070272;28;20077;-74
2021/08/30 03:04:05;;;;;;;11.27;6.03;;;16.60;99.90;;;;;;5069404;28;20038;-74
2021/08/30 03:06:32;;;;;;;10.02;6.53;;;16.60;99.90;;;;;;5074038;28;20164;-73
2021/08/30 03:08:58;;;;;;;13.17;6.67;;;16.60;99.90;;;;;;5074753;28;20025;-73
2021/08/30 03:11:26;;;;;;;13.25;7.15;;;16.50;99.90;;;;;;5073510;28;20025;-74
2021/08/30 03:13:52;;;;;;;;;;;16.50;99.90;;;;;;5074990;28;20086;-74
2021/08/30 03:16:19;;;;;;;13.43;6.28;;;16.50;99.90;;;;;;5071712;28;19920;-73
2021/08/30 03:18:46;;;;;;;15.52;6.72;;;16.50;99.90;;;;;;5062301;28;20086;-73
2021/08/30 03:21:12;;;;;;;13.18;7.60;;;16.40;99.90;;;;;;5057247;28;20027;-73
2021/08/30 03:23:40;;;;;;;14.73;7.18;;;16.40;99.90;;;;;;5055871;28;20065;-73
2021/08/30 03:26:07;;;;;;;13.80;8.85;;;16.40;99.90;;;;;;5055648;28;20083;-73
2021/08/30 03:28:34;;;;;;;18.27;8.07;;;16.30;99.90;;;;;;5054314;28;20094;-73
2021/08/30 03:31:01;;;;;;;18.52;8.52;;;16.30;99.90;;;;;;5054643;28;20029;-73
2021/08/30 03:33:27;;;;;;;16.65;8.45;;;16.30;99.90;;;;;;5053729;28;20072;-73
2021/08/30 03:35:54;;;;;;;14.48;8.25;;;16.30;99.90;;;;;;5053321;28;20190;-74
2021/08/30 03:38:21;;;;;;;21.40;9.35;;;16.20;99.90;;;;;;5052622;28;20104;-73
2021/08/30 03:40:52;;;;;;;19.00;8.45;;;16.20;99.90;;;;;;5052752;28;20033;-73
2021/08/30 03:43:19;;;;;;;24.50;9.75;;;16.20;99.90;;;;;;5047388;28;20025;-73
2021/08/30 03:45:48;;;;;;;18.02;9.55;;;16.20;99.90;;;;;;5052502;28;20029;-73
2021/08/30 03:48:14;;;;;;;17.77;9.48;;;16.20;99.90;;;;;;5052219;28;20465;-73
2021/08/30 03:50:41;;;;;;;16.13;9.43;;;16.20;99.90;;;;;;5050934;28;20048;-73
2021/08/30 03:53:07;;;;;;;20.27;9.32;;;16.20;99.90;;;;;;5052438;28;20021;-73
2021/08/30 03:55:33;;;;;;;18.55;9.27;;;16.20;99.90;;;;;;5051279;28;20111;-73
2021/08/30 03:58:01;;;;;;;19.75;9.65;;;16.30;99.90;;;;;;5052368;28;20032;-73
2021/08/30 04:00:27;;;;;;;17.20;10.15;;;16.30;99.90;;;;;;5050767;28;20032;-73
2021/08/30 04:02:55;;;;;;;23.00;9.88;;;16.30;99.90;;;;;;5051548;28;20036;-73
2021/08/30 04:05:27;;;;;;;17.45;9.32;;;16.30;99.90;;;;;;5052492;28;20037;-73
2021/08/30 04:07:53;;;;;;;17.90;8.13;;;16.30;99.90;;;;;;5050997;28;20025;-73
2021/08/30 04:10:19;;;;;;;20.00;9.60;;;16.30;99.90;;;;;;5051780;28;20050;-73
2021/08/30 04:12:45;;;;;;;19.90;8.65;;;16.40;99.90;;;;;;5052202;28;20021;-73
2021/08/30 04:15:11;;;;;;;16.15;9.10;;;16.40;99.90;;;;;;5052427;28;20421;-73
2021/08/30 04:17:37;;;;;;;19.33;9.43;;;16.40;99.90;;;;;;5051974;28;20098;-73
2021/08/30 04:20:03;;;;;;;27.58;11.30;;;16.50;99.90;;;;;;5052272;28;20037;-73
2021/08/30 04:22:28;;;;;;;20.55;8.88;;;16.50;99.90;;;;;;5051377;28;20021;-73
2021/08/30 04:24:54;;;;;;;21.33;9.93;;;16.40;99.90;;;;;;5050305;28;20039;-73
2021/08/30 04:27:20;;;;;;;17.60;9.77;;;16.40;99.90;;;;;;5051978;28;20033;-73
2021/08/30 04:29:45;;;;;;;18.83;9.77;;;16.50;99.90;;;;;;5051782;28;20021;-73
2021/08/30 04:32:12;;;;;;;18.63;10.25;;;16.50;99.90;;;;;;5051915;28;20040;-73
2021/08/30 04:34:38;;;;;;;19.77;10.43;;;16.50;99.90;;;;;;5052265;28;20100;-73
2021/08/30 04:37:04;;;;;;;19.10;9.68;;;16.50;99.90;;;;;;5050498;28;20420;-73
2021/08/30 04:39:30;;;;;;;17.52;10.02;;;16.50;99.90;;;;;;5051007;28;20108;-73
2021/08/30 04:41:55;;;;;;;20.17;10.45;;;16.50;99.90;;;;;;5050696;28;20037;-73
2021/08/30 04:44:21;;;;;;;14.70;8.80;;;16.50;99.90;;;;;;5051472;28;20124;-73
2021/08/30 04:46:46;;;;;;;21.50;9.93;;;16.50;99.90;;;;;;5051120;28;20033;-73
2021/08/30 04:49:12;;;;;;;19.95;11.10;;;16.50;99.90;;;;;;5051667;28;20031;-73
2021/08/30 04:51:38;;;;;;;17.55;9.88;;;16.60;99.90;;;;;;5051446;28;20021;-73
2021/08/30 04:54:03;;;;;;;16.83;9.50;;;16.50;99.90;;;;;;5049862;28;20021;-74
2021/08/30 04:56:29;;;;;;;18.48;9.57;;;16.50;99.90;;;;;;5050306;28;20433;-73
2021/08/30 04:58:54;;;;;;;20.08;10.00;;;16.50;99.90;;;;;;5051335;28;20021;-73
2021/08/30 05:01:21;;;;;;;23.48;11.25;;;16.50;99.90;;;;;;5051189;28;20078;-73
2021/08/30 05:03:47;;;;;;;22.55;9.95;;;16.50;99.90;;;;;;5051194;28;20029;-73
2021/08/30 05:06:12;;;;;;;27.33;11.07;;;16.50;99.90;;;;;;5050531;28;20104;-73
2021/08/30 05:08:38;;;;;;;22.10;11.80;;;16.50;99.90;;;;;;5051335;28;20084;-74
2021/08/30 05:11:04;;;;;;;19.33;11.27;;;16.50;99.90;;;;;;5051384;28;20397;-74
2021/08/30 05:13:30;;;;;;;22.02;10.13;;;16.50;99.90;;;;;;5050942;28;20025;-74
2021/08/30 05:15:55;;;;;;;21.80;10.05;;;16.60;99.90;;;;;;5049030;28;20045;-74
2021/08/30 05:18:21;;;;;;;19.67;10.05;;;16.60;99.90;;;;;;5037413;28;20517;-74
2021/08/30 05:20:49;;;;;;;20.80;9.77;;;16.60;99.90;;;;;;5051220;28;20377;-74
2021/08/30 05:23:16;;;;;;;19.55;11.45;;;16.60;99.90;;;;;;5050975;28;20477;-74
2021/08/30 05:25:42;;;;;;;18.83;10.07;;;16.70;99.90;;;;;;5051307;28;20496;-74
2021/08/30 05:28:07;;;;;;;27.40;11.65;;;16.70;99.90;;;;;;5049186;28;20028;-74
2021/08/30 05:30:33;;;;;;;22.58;10.60;;;16.70;99.90;;;;;;5049058;28;20397;-74
2021/08/30 05:32:58;;;;;;;22.35;9.98;;;16.70;99.90;;;;;;5050915;28;20029;-74
2021/08/30 05:35:24;;;;;;;23.27;11.18;;;16.80;99.90;;;;;;5051376;28;20053;-73
2021/08/30 05:37:50;;;;;;;18.02;9.43;;;16.80;99.90;;;;;;5049573;28;20114;-74
2021/08/30 05:40:16;;;;;;;18.83;10.80;;;16.80;99.90;;;;;;5050853;28;20392;-74
2021/08/30 05:42:41;;;;;;;20.38;11.23;;;16.80;99.90;;;;;;5049754;28;20123;-74
2021/08/30 05:45:07;;;;;;;22.15;10.75;;;16.80;99.90;;;;;;5051085;28;20033;-74
2021/08/30 05:47:33;;;;;;;23.08;10.95;;;16.80;99.90;;;;;;5050265;28;20029;-74
2021/08/30 05:49:59;;;;;;;25.88;11.18;;;16.80;99.90;;;;;;5049980;28;20106;-74
2021/08/30 05:52:25;;;;;;;24.02;11.05;;;16.80;99.90;;;;;;5049048;28;20508;-74
2021/08/30 05:54:51;;;;;;;21.40;11.65;;;16.80;99.90;;;;;;5050202;28;20499;-74
2021/08/30 05:57:17;;;;;;;21.33;11.07;;;16.80;99.90;;;;;;5049675;28;20127;-74
2021/08/30 05:59:42;;;;;;;27.20;10.98;;;16.80;99.90;;;;;;5049363;28;20108;-74
2021/08/30 06:02:10;;;;;;;20.70;11.05;;;16.80;99.90;;;;;;5049375;28;20411;-74
2021/08/30 06:04:36;;;;;;;28.48;11.50;;;16.90;99.90;;;;;;5050307;28;20029;-74
2021/08/30 06:07:02;;;;;;;22.90;10.93;;;16.90;99.90;;;;;;5050066;28;20036;-74
2021/08/30 06:09:29;;;;;;;24.90;11.60;;;16.80;99.90;;;;;;5050382;28;20108;-74
2021/08/30 06:11:55;;;;;;;24.42;10.23;;;16.90;99.90;;;;;;5050687;28;20025;-74
2021/08/30 06:14:20;;;;;;;25.98;11.25;;;16.90;99.90;;;;;;5050643;28;20023;-74
2021/08/30 06:16:46;;;;;;;22.50;11.35;;;17.00;99.90;;;;;;5050718;28;20053;-74
2021/08/30 06:19:11;;;;;;;21.30;10.45;;;17.00;99.90;;;;;;5049677;28;20385;-75
2021/08/30 06:21:37;;;;;;;20.33;10.15;;;17.10;99.90;;;;;;5050331;28;20040;-74
2021/08/30 06:24:03;;;;;;;19.80;10.43;;;17.10;99.90;;;;;;5051359;28;20574;-74
2021/08/30 06:26:30;;;;;;;24.00;11.35;;;17.10;99.90;;;;;;5052850;28;20041;-74
2021/08/30 06:28:55;;;;;;;26.60;11.43;;;17.10;99.90;;;;;;5055707;28;20021;-74
2021/08/30 06:31:21;;;;;;;21.15;10.90;;;17.20;99.90;;;;;;5054278;28;20155;-74
2021/08/30 06:33:47;;;;;;;25.42;10.77;;;17.20;99.90;;;;;;5054490;28;20060;-74
2021/08/30 06:36:12;;;;;;;23.48;10.75;;;17.20;99.90;;;;;;5055919;28;20028;-74
2021/08/30 06:38:38;;;;;;;20.20;9.77;;;17.20;99.90;;;;;;5062610;28;20025;-74
2021/08/30 06:41:04;;;;;;;21.38;10.60;;;17.20;99.90;;;;;;5070972;28;20040;-74
2021/08/30 06:43:29;;;;;;;21.80;11.50;;;17.30;99.90;;;;;;5071403;28;20772;-74
2021/08/30 06:45:55;;;;;;;19.30;8.73;;;17.40;99.90;;;;;;5072868;28;20044;-74
2021/08/30 06:48:20;;;;;;;19.60;8.70;;;17.40;99.90;;;;;;5072231;28;20075;-74
2021/08/30 06:50:46;;;;;;;22.75;9.88;;;17.40;99.90;;;;;;5073963;28;20060;-74
2021/08/30 06:53:12;;;;;;;17.33;9.07;;;17.40;99.90;;;;;;5074089;28;20036;-74
2021/08/30 06:55:38;;;;;;;19.23;9.13;;;17.40;99.90;;;;;;5070196;28;20048;-73
2021/08/30 06:58:04;;;;;;;23.60;10.73;;;17.40;99.90;;;;;;5069853;28;20116;-73
2021/08/30 07:00:29;;;;;;;25.15;10.35;;;17.50;99.90;;;;;;5070134;28;20031;-74
2021/08/30 07:02:55;;;;;;;17.73;8.88;;;17.50;99.90;;;;;;5073018;28;20033;-73
2021/08/30 07:05:21;;;;;;;23.33;9.30;;;17.50;99.90;;;;;;5071245;28;20021;-73
2021/08/30 07:07:47;;;;;;;17.50;9.90;;;17.50;99.90;;;;;;5070768;28;20132;-73
2021/08/30 07:10:13;;;;;;;18.15;9.45;;;17.50;99.90;;;;;;5068200;28;20033;-73
2021/08/30 07:12:39;;;;;;;24.20;10.20;;;17.40;99.90;;;;;;5070867;28;20036;-73
2021/08/30 07:15:05;;;;;;;24.45;10.00;;;17.50;99.90;;;;;;5060662;28;20029;-74
2021/08/30 07:17:31;;;;;;;20.50;9.63;;;17.50;99.90;;;;;;5058063;28;20068;-74
2021/08/30 07:19:57;;;;;;;24.33;9.57;;;17.50;99.90;;;;;;5057269;28;20044;-75
2021/08/30 07:22:23;;;;;;;19.27;9.32;;;17.50;99.90;;;;;;5056165;28;20524;-74
2021/08/30 07:24:48;;;;;;;15.48;9.18;;;17.50;99.90;;;;;;5056376;28;20029;-74
2021/08/30 07:27:14;;;;;;;17.17;9.13;;;17.60;99.90;;;;;;5053885;28;20033;-74
2021/08/30 07:29:40;;;;;;;27.40;10.68;;;17.60;99.90;;;;;;5053579;28;20385;-74
2021/08/30 07:32:06;;;;;;;19.50;9.77;;;17.70;99.90;;;;;;5053803;28;20100;-74
2021/08/30 07:34:31;;;;;;;18.98;8.57;;;17.70;99.90;;;;;;5053891;28;20036;-74
2021/08/30 07:36:58;;;;;;;24.70;10.68;;;17.70;99.90;;;;;;5051399;28;20043;-74
2021/08/30 07:39:23;;;;;;;23.25;10.05;;;17.70;99.90;;;;;;5053307;28;20041;-74
2021/08/30 07:41:50;;;;;;;25.77;10.50;;;17.60;99.90;;;;;;5053264;28;20037;-74
2021/08/30 07:44:16;;;;;;;24.55;9.88;;;17.60;99.90;;;;;;5053119;28;20025;-74
2021/08/30 07:46:42;;;;;;;23.75;9.55;;;17.60;99.90;;;;;;5053498;28;20032;-74
2021/08/30 07:49:10;;;;;;;25.48;10.32;;;17.60;99.90;;;;;;5051253;28;20501;-75
2021/08/30 07:51:36;;;;;;;;;;;17.70;99.90;;;;;;5053603;28;20025;-76
2021/08/30 07:54:02;;;;;;;28.42;9.88;;;17.60;99.90;;;;;;5051610;28;20444;-75
2021/08/30 07:56:27;;;;;;;22.92;10.45;;;17.70;99.90;;;;;;5052600;28;20071;-75
2021/08/30 07:58:53;;;;;;;14.55;8.73;;;17.70;99.90;;;;;;5052129;28;20052;-75
2021/08/30 08:01:19;;;;;;;18.75;9.48;;;17.70;99.90;;;;;;5051590;28;20555;-74
2021/08/30 08:03:46;;;;;;;17.92;8.00;;;17.70;99.90;;;;;;5052669;28;20029;-75
2021/08/30 08:06:11;;;;;;;19.83;8.47;;;17.70;99.90;;;;;;5051752;28;20040;-75
2021/08/30 08:08:37;;;;;;;22.88;8.23;;;17.70;99.90;;;;;;5052136;28;20029;-75
2021/08/30 08:11:02;;;;;;;18.63;8.43;;;17.80;99.90;;;;;;5052532;28;20436;-75
2021/08/30 08:13:29;;;;;;;15.15;8.45;;;17.90;99.90;;;;;;5051859;28;20481;-75
2021/08/30 08:15:55;;;;;;;22.52;8.40;;;17.90;99.90;;;;;;5051631;28;20376;-75
2021/08/30 08:18:21;;;;;;;19.05;8.05;;;18.00;99.90;;;;;;5052220;28;20082;-75
2021/08/30 08:20:48;;;;;;;14.07;7.15;;;18.00;99.90;;;;;;5051055;28;20048;-74
2021/08/30 08:23:13;;;;;;;20.17;6.90;;;18.00;99.90;;;;;;5051900;28;20031;-74
2021/08/30 08:25:39;;;;;;;17.83;7.25;;;18.00;99.90;;;;;;5051974;28;20041;-74
2021/08/30 08:28:06;;;;;;;15.15;7.05;;;18.10;99.90;;;;;;5051649;28;20122;-75
2021/08/30 08:30:32;;;;;;;19.30;6.77;;;18.20;99.90;;;;;;5051788;28;20025;-74
2021/08/30 08:33:00;;;;;;;17.35;6.18;;;18.20;99.90;;;;;;5051668;28;20055;-75
2021/08/30 08:35:26;;;;;;;16.27;6.15;;;18.20;99.90;;;;;;5051620;28;20031;-74
2021/08/30 08:37:52;;;;;;;15.15;7.78;;;18.20;99.90;;;;;;5050434;28;20178;-74
2021/08/30 08:40:18;;;;;;;18.90;6.43;;;18.20;99.90;;;;;;5051314;28;20039;-74
2021/08/30 08:42:44;;;;;;;14.88;6.82;;;18.20;99.90;;;;;;5050133;28;20037;-74
2021/08/30 08:45:12;;;;;;;13.07;6.55;;;18.20;99.90;;;;;;5050945;28;20056;-74
2021/08/30 08:47:40;;;;;;;16.10;5.90;;;18.30;99.90;;;;;;5041381;28;20379;-74
2021/08/30 08:50:08;;;;;;;17.63;7.93;;;18.40;99.90;;;;;;5038769;28;20373;-74
2021/08/30 08:52:34;;;;;;;25.38;7.60;;;18.30;99.90;;;;;;5051590;28;20563;-74
2021/08/30 08:55:00;;;;;;;15.13;6.45;;;18.30;99.90;;;;;;5051473;28;20385;-74
2021/08/30 08:57:27;;;;;;;16.15;6.38;;;18.40;99.90;;;;;;5049939;28;20024;-77
2021/08/30 09:00:00;;;;;;;20.27;6.70;;;18.40;99.90;;;;;;5051777;28;20025;-74
2021/08/30 09:02:30;;;;;;;13.43;6.22;;;18.50;99.90;;;;;;5051273;28;20040;-73
2021/08/30 09:04:58;;;;;;;15.70;7.50;;;18.60;99.90;;;;;;5051620;28;20108;-75
2021/08/30 09:07:33;;;;;;;10.90;6.57;;;18.70;99.90;;;;;;5050909;28;20535;-76
2021/08/30 09:10:00;;;;;;;17.10;6.80;;;18.80;99.90;;;;;;5050267;28;20033;-74
2021/08/30 09:12:25;;;;;;;11.70;6.40;;;18.80;99.90;;;;;;5050527;28;20049;-75
2021/08/30 09:14:51;;;;;;;14.55;7.30;;;18.80;99.90;;;;;;5045996;28;20045;-75
2021/08/30 09:17:17;;;;;;;20.92;6.88;;;18.90;99.90;;;;;;5051307;28;20075;-76
2021/08/30 09:19:44;;;;;;;12.55;6.13;;;18.90;99.90;;;;;;5051188;28;20053;-76
2021/08/30 09:22:10;;;;;;;13.80;6.57;;;18.90;99.90;;;;;;5051155;28;20091;-82
2021/08/30 09:24:37;;;;;;;9.85;6.50;;;18.90;99.90;;;;;;5051362;28;20031;-75
2021/08/30 09:27:04;;;;;;;13.63;6.22;;;19.10;99.90;;;;;;5050006;28;20037;-75
2021/08/30 09:29:32;;;;;;;19.65;7.45;;;19.20;99.90;;;;;;5044811;28;20025;-74
2021/08/30 09:32:14;;;;;;;9.05;5.93;;;19.20;99.90;;;;;;5051478;28;20048;-75
2021/08/30 09:34:47;;;;;;;21.42;7.65;;;19.30;99.90;;;;;;5044816;28;20078;-74
2021/08/30 09:37:19;;;;;;;16.27;6.57;;;19.40;99.90;;;;;;5049233;28;20047;-74
2021/08/30 09:39:47;;;;;;;17.85;5.93;;;19.60;99.90;;;;;;5051021;28;20021;-74
2021/08/30 09:42:13;;;;;;;15.02;6.40;;;19.80;99.90;;;;;;5050971;28;20334;-74
2021/08/30 09:44:39;;;;;;;18.90;5.60;;;19.80;99.90;;;;;;5051171;28;20039;-74
2021/08/30 09:47:14;;;;;;;15.60;6.75;;;19.80;99.90;;;;;;5051487;28;20052;-75
2021/08/30 09:49:40;;;;;;;14.95;6.05;;;19.60;99.90;;;;;;5050854;28;20391;-75
2021/08/30 09:52:07;;;;;;;13.67;5.90;;;19.60;99.90;;;;;;5053052;28;20070;-75
2021/08/30 09:54:33;;;;;;;15.57;6.25;;;19.60;99.90;;;;;;5052474;28;20032;-75
2021/08/30 09:56:59;;;;;;;13.15;6.07;;;19.70;99.90;;;;;;5052591;28;20389;-76
2021/08/30 09:59:25;;;;;;;23.27;5.90;;;19.60;99.90;;;;;;5050656;28;20128;-75
2021/08/30 10:01:54;;;;;;;12.35;5.65;;;19.70;99.90;;;;;;5055286;28;20035;-76
2021/08/30 10:04:21;;;;;;;14.25;5.38;;;19.70;99.90;;;;;;5055388;28;20033;-75
2021/08/30 10:06:51;;;;;;;14.47;6.53;;;19.70;99.90;;;;;;5054275;28;20069;-75
2021/08/30 10:09:19;;;;;;;20.33;5.80;;;19.90;99.90;;;;;;5053876;28;20041;-75
2021/08/30 10:11:45;;;;;;;17.10;5.75;;;20.10;99.90;;;;;;5054230;28;20090;-75
2021/08/30 10:14:19;;;;;;;7.73;3.80;;;20.20;99.90;;;;;;5053909;28;20044;-75
2021/08/30 10:16:46;;;;;;;11.13;5.55;;;20.00;99.90;;;;;;5054820;28;20065;-76
2021/08/30 10:19:32;;;;;;;15.93;5.90;;;20.10;99.90;;;;;;5053795;28;20385;-75
2021/08/30 10:22:00;;;;;;;10.60;5.70;;;20.30;99.90;;;;;;5054844;28;20730;-75
2021/08/30 10:24:28;;;;;;;14.75;6.20;;;20.30;99.90;;;;;;5054864;28;20151;-75
2021/08/30 10:27:02;;;;;;;11.15;5.10;;;20.40;99.90;;;;;;5053571;28;20397;-76
2021/08/30 10:29:33;;;;;;;10.85;5.53;;;20.20;99.90;;;;;;5053494;28;20389;-76
2021/08/30 10:31:59;;;;;;;11.27;5.53;;;20.10;99.90;;;;;;5055168;28;20029;-76
2021/08/30 10:34:31;;;;;;;10.27;5.32;;;20.10;99.90;;;;;;5054727;28;20096;-76
2021/08/30 10:36:58;;;;;;;11.90;5.28;;;20.10;99.90;;;;;;5055129;28;20033;-76
2021/08/30 10:39:36;;;;;;;15.70;5.53;;;20.10;99.90;;;;;;5053516;28;20564;-76
2021/08/30 10:42:02;;;;;;;12.80;5.88;;;20.10;99.90;;;;;;5054895;28;20282;-76
2021/08/30 10:44:28;;;;;;;18.17;6.22;;;20.10;99.90;;;;;;5054869;28;20033;-76
2021/08/30 10:46:55;;;;;;;13.07;5.53;;;20.20;99.90;;;;;;5054932;28;20035;-76
2021/08/30 10:49:32;;;;;;;10.87;5.77;;;20.20;99.90;;;;;;5055340;28;20025;-76
2021/08/30 10:52:15;;;;;;;11.10;5.53;;;20.00;99.90;;;;;;5055211;28;20065;-76
2021/08/30 10:54:52;;;;;;;12.25;6.20;;;19.80;99.90;;;;;;5055237;28;20068;-76
2021/08/30 10:57:17;;;;;;;8.65;5.15;;;19.80;99.90;;;;;;5055091;28;20041;-76
2021/08/30 10:59:43;;;;;;;11.38;6.13;;;19.80;99.90;;;;;;5055578;28;20485;-76
2021/08/30 11:02:09;;;;;;;17.80;6.30;;;19.80;99.90;;;;;;5054443;28;20127;-76
2021/08/30 11:04:38;;;;;;;11.98;5.78;;;19.90;99.90;;;;;;5056518;28;20485;-76
2021/08/30 11:07:07;;;;;;;11.43;5.90;;;20.00;99.90;;;;;;5068369;28;20017;-76
2021/08/30 11:09:33;;;;;;;12.00;4.85;;;20.20;99.90;;;;;;5074415;28;20084;-76
2021/08/30 11:12:13;;;;;;;12.60;5.80;;;20.20;99.90;;;;;;5075282;28;20025;-76
2021/08/30 11:14:40;;;;;;;11.70;6.38;;;20.30;99.90;;;;;;5076081;28;20017;-76
2021/08/30 11:17:13;;;;;;;11.48;5.88;;;20.20;99.90;;;;;;5075346;28;20113;-76
2021/08/30 11:19:42;;;;;;;15.80;6.03;;;20.00;99.90;;;;;;5074958;28;20102;-75
2021/08/30 11:22:08;;;;;;;10.43;5.95;;;19.90;99.90;;;;;;5074982;28;20021;-76
2021/08/30 11:24:36;;;;;;;11.55;5.22;;;19.70;99.90;;;;;;5075416;28;20052;-76
2021/08/30 11:27:09;;;;;;;12.07;5.57;;;19.70;99.90;;;;;;5076313;28;20045;-76
2021/08/30 11:29:41;;;;;;;15.90;5.88;;;19.90;99.90;;;;;;5075004;28;20037;-75
2021/08/30 11:32:07;;;;;;;11.13;5.30;;;20.40;99.90;;;;;;5077771;28;20036;-76
2021/08/30 11:34:37;;;;;;;11.55;5.35;;;20.50;99.90;;;;;;5078093;28;20025;-76
2021/08/30 11:37:04;;;;;;;16.05;5.20;;;20.50;99.90;;;;;;5077754;28;20009;-75
2021/08/30 11:39:32;;;;;;;13.48;5.63;;;20.50;99.90;;;;;;5077206;28;20032;-75
2021/08/30 11:42:00;;;;;;;9.75;5.10;;;20.60;99.90;;;;;;5078015;28;20032;-75
2021/08/30 11:44:29;;;;;;;15.20;5.38;;;20.80;99.90;;;;;;5076749;28;20052;-75
2021/08/30 11:46:57;;;;;;;11.98;4.47;;;21.00;99.90;;;;;;5076571;28;20049;-75
2021/08/30 11:49:45;;;;;;;;;;;21.20;99.90;;;;;;5077456;28;20094;-76
2021/08/30 11:52:13;;;;;;;16.90;6.60;;;21.30;99.90;;;;;;5070117;28;19920;-76
2021/08/30 11:54:43;;;;;;;7.57;4.43;;;21.30;99.90;;;;;;5074495;28;20454;-72
2021/08/30 11:57:13;;;;;;;16.08;5.30;;;21.40;99.90;;;;;;5057742;28;20033;-76
2021/08/30 11:59:42;;;;;;;10.55;5.47;;;21.10;99.90;;;;;;5055923;28;20036;-76
2021/08/30 12:02:10;;;;;;;11.50;4.57;;;20.80;99.90;;;;;;5057304;28;20048;-76
2021/08/30 12:04:38;;;;;;;6.55;4.65;;;20.80;99.90;;;;;;5056353;28;20056;-77
2021/08/30 12:07:15;;;;;;;10.38;4.10;;;21.00;99.90;;;;;;5054108;28;20508;-76
2021/08/30 12:09:41;;;;;;;;;;;21.10;99.90;;;;;;5056236;28;20556;-77
2021/08/30 12:12:15;;;;;;;5.95;3.88;;;20.90;99.90;;;;;;5054937;28;19920;-77
2021/08/30 12:14:40;;;;;;;10.02;4.32;;;20.80;99.90;;;;;;5053572;28;20036;-77
2021/08/30 12:17:06;;;;;;;9.85;4.70;;;20.90;99.90;;;;;;5054515;28;20049;-76
2021/08/30 12:19:32;;;;;;;8.15;4.63;;;20.90;99.90;;;;;;5052273;28;20082;-77
2021/08/30 12:21:57;;;;;;;9.43;4.70;;;21.00;99.90;;;;;;5053557;28;20037;-77
2021/08/30 12:24:23;;;;;;;7.75;4.25;;;21.00;99.90;;;;;;5052002;28;20029;-77
2021/08/30 12:26:51;;;;;;;5.25;3.95;;;21.30;99.90;;;;;;5053045;28;20036;-77
2021/08/30 12:29:19;;;;;;;13.52;4.68;;;21.40;99.90;;;;;;5053063;28;20017;-77
2021/08/30 12:31:52;;;;;;;;;;;21.30;99.90;;;;;;5051904;28;20027;-76
2021/08/30 12:34:22;;;;;;;3.85;3.05;;;21.40;99.90;;;;;;5052850;28;19951;-77
2021/08/30 12:36:48;;;;;;;7.47;3.65;;;21.60;99.90;;;;;;5052667;28;20060;-77
2021/08/30 12:39:15;;;;;;;5.43;4.22;;;21.80;99.90;;;;;;5052337;28;20032;-77
2021/08/30 12:41:40;;;;;;;4.50;3.40;;;21.80;99.90;;;;;;5052758;28;20028;-77